KPOC/POC METAR and TAF weather

Enter ICAO airport designator
Station Type Date Time Source
KPOC METAR 2019/02/23 00:47 UTC NOAA

KPOC 230047Z 23007KT 10SM CLR 12/M03 A3005


Station Type Date Time Source
KPOC Decoded METAR 2019/02/23 00:47 UTC NOAA

La Verne / Brackett, CA, United States (KPOC) 34-06N 117-47W
Feb 22, 2019 - 07:47 PM EST / 2019.02.23 0047 UTC
Wind: from the SW (230 degrees) at 8 MPH (7 KT):0
Visibility: 10 mile(s):0
Sky conditions: clear
Temperature: 53 F (12 C)
Dew Point: 26 F (-3 C)
Relative Humidity: 34%
Pressure (altimeter): 30.05 in. Hg (1017 hPa)
ob: KPOC 230047Z 23007KT 10SM CLR 12/M03 A3005
cycle: 1

Station Type Date Time Source
KPOC TAF UTC NOAA

Error!


Example: see airport list